createdAt,value
2019-03-17T00:02:15.174Z,98135.33
2019-03-17T00:04:46.664Z,98131.79
2019-03-17T00:07:18.011Z,98133.81
2019-03-17T00:09:49.352Z,98129.12
2019-03-17T00:12:23.794Z,98140.97
2019-03-17T00:15:04.704Z,98146.44
2019-03-17T00:17:28.245Z,98138.36
2019-03-17T00:19:59.620Z,98142.88
2019-03-17T00:22:31.001Z,98146.82
2019-03-17T00:25:09.139Z,98145.30
2019-03-17T00:27:35.354Z,98149.59
2019-03-17T00:30:11.381Z,98150.23
2019-03-17T00:32:42.926Z,98153.97
2019-03-17T00:35:14.305Z,98151.45
2019-03-17T00:37:45.519Z,98152.00
2019-03-17T00:40:16.938Z,98159.88
2019-03-17T00:42:48.358Z,98157.97
2019-03-17T00:45:19.620Z,98166.11
2019-03-17T00:47:50.941Z,98172.41
2019-03-17T00:50:22.281Z,98168.61
2019-03-17T00:52:53.667Z,98172.48
2019-03-17T00:55:25.041Z,98179.69
2019-03-17T00:57:56.430Z,98180.72
2019-03-17T01:00:27.689Z,98186.92
2019-03-17T01:03:00.079Z,98190.54
2019-03-17T01:05:31.633Z,98198.42
2019-03-17T01:08:02.993Z,98197.80
2019-03-17T01:10:34.315Z,98206.69
2019-03-17T01:13:05.950Z,98202.25
2019-03-17T01:15:37.258Z,98208.11
2019-03-17T01:18:08.582Z,98203.94
2019-03-17T01:20:39.981Z,98206.34
2019-03-17T01:23:11.367Z,98204.84
2019-03-17T01:25:42.621Z,98209.30
2019-03-17T01:28:13.915Z,98211.63
2019-03-17T01:30:45.256Z,98214.62
2019-03-17T01:33:16.636Z,98219.94
2019-03-17T01:35:48.067Z,98218.19
2019-03-17T01:38:19.450Z,98219.66
2019-03-17T01:40:50.758Z,98217.41
2019-03-17T01:43:21.933Z,98222.22
2019-03-17T01:45:53.271Z,98225.64
2019-03-17T01:48:24.701Z,98231.34
2019-03-17T01:50:56.000Z,98232.98
2019-03-17T01:53:27.460Z,98238.87
2019-03-17T01:55:58.737Z,98237.05
2019-03-17T01:58:30.117Z,98237.47
2019-03-17T02:01:01.429Z,98238.15
2019-03-17T02:03:34.055Z,98229.27
2019-03-17T02:06:05.377Z,98242.25
2019-03-17T02:08:36.765Z,98244.16
2019-03-17T02:11:08.070Z,98246.70
2019-03-17T02:13:39.321Z,98249.96
2019-03-17T02:16:10.546Z,98252.20
2019-03-17T02:18:41.937Z,98256.19
2019-03-17T02:21:13.305Z,98264.89
2019-03-17T02:23:44.548Z,98271.23
2019-03-17T02:26:15.866Z,98267.62
2019-03-17T02:28:47.155Z,98268.77
2019-03-17T02:31:18.528Z,98263.64
2019-03-17T02:33:49.807Z,98274.01
2019-03-17T02:36:21.047Z,98275.69
2019-03-17T02:38:52.439Z,98288.75
2019-03-17T02:41:23.838Z,98297.94
2019-03-17T02:43:55.312Z,98296.61
2019-03-17T02:46:26.626Z,98299.80
2019-03-17T02:48:57.993Z,98304.64
2019-03-17T02:51:29.325Z,98314.20
2019-03-17T02:54:00.748Z,98318.84
2019-03-17T02:56:32.089Z,98324.16
2019-03-17T02:59:03.493Z,98324.98
2019-03-17T03:01:34.759Z,98335.78
2019-03-17T03:04:06.199Z,98332.44
2019-03-17T03:06:37.495Z,98338.95
2019-03-17T03:09:08.856Z,98335.12
2019-03-17T03:11:40.259Z,98343.81
2019-03-17T03:14:11.680Z,98342.11
2019-03-17T03:16:43.091Z,98347.95
2019-03-17T03:19:14.415Z,98348.67
2019-03-17T03:21:45.692Z,98350.84
2019-03-17T03:24:17.075Z,98356.55
2019-03-17T03:26:48.690Z,98367.26
2019-03-17T03:29:19.955Z,98359.48
2019-03-17T03:31:51.253Z,98365.70
2019-03-17T03:34:22.951Z,98372.38
2019-03-17T03:36:54.350Z,98373.77
2019-03-17T03:39:26.659Z,98375.77
2019-03-17T03:41:57.995Z,98377.93
2019-03-17T03:44:29.326Z,98383.41
2019-03-17T03:47:00.627Z,98381.92
2019-03-17T03:49:31.961Z,98391.73
2019-03-17T03:52:03.398Z,98395.57
2019-03-17T03:54:34.761Z,98400.20
2019-03-17T03:57:06.163Z,98398.69
2019-03-17T03:59:37.492Z,98404.36
2019-03-17T04:02:08.792Z,98409.34
2019-03-17T04:04:40.167Z,98411.77
2019-03-17T04:07:11.541Z,98413.67
2019-03-17T04:09:42.857Z,98419.00
2019-03-17T04:12:14.060Z,98419.03
2019-03-17T04:14:45.360Z,98423.64
2019-03-17T04:17:16.743Z,98431.73
2019-03-17T04:19:47.985Z,98439.08
2019-03-17T04:22:19.303Z,98438.28
2019-03-17T04:24:50.579Z,98440.67
2019-03-17T04:27:21.909Z,98446.66
2019-03-17T04:29:54.496Z,98453.81
2019-03-17T04:32:25.915Z,98459.16
2019-03-17T04:34:57.336Z,98459.97
2019-03-17T04:37:29.148Z,98458.98
2019-03-17T04:40:00.859Z,98468.08
2019-03-17T04:42:32.287Z,98467.70
2019-03-17T04:45:03.650Z,98469.72
2019-03-17T04:47:34.963Z,98469.70
2019-03-17T04:50:07.702Z,98473.17
2019-03-17T04:52:38.980Z,98479.69
2019-03-17T04:55:10.405Z,98484.33
2019-03-17T04:57:41.635Z,98489.98
2019-03-17T05:00:13.576Z,98490.56
2019-03-17T05:02:44.887Z,98496.08
2019-03-17T05:05:16.400Z,98500.53
2019-03-17T05:07:47.689Z,98507.16
2019-03-17T05:10:18.925Z,98513.78
2019-03-17T05:12:50.232Z,98517.24
2019-03-17T05:15:22.697Z,98525.92
2019-03-17T05:17:53.961Z,98524.82
2019-03-17T05:20:24.923Z,98527.98
2019-03-17T05:22:56.182Z,98537.49
2019-03-17T05:25:27.427Z,98546.70
2019-03-17T05:27:58.715Z,98544.27
2019-03-17T05:30:30.068Z,98559.30
2019-03-17T05:33:01.361Z,98558.28
2019-03-17T05:35:32.719Z,98560.86
2019-03-17T05:38:04.230Z,98565.13
2019-03-17T05:40:35.607Z,98575.28
2019-03-17T05:43:06.935Z,98576.92
2019-03-17T05:45:38.268Z,98579.92
2019-03-17T05:48:09.511Z,98584.16
2019-03-17T05:50:40.937Z,98588.23
2019-03-17T05:53:12.330Z,98588.88
2019-03-17T05:55:43.786Z,98595.14
2019-03-17T05:58:15.068Z,98598.94
2019-03-17T06:00:46.390Z,98599.63
2019-03-17T06:03:17.602Z,98607.14
2019-03-17T06:05:48.917Z,98602.62
2019-03-17T06:08:20.320Z,98613.62
2019-03-17T06:10:51.642Z,98615.12
2019-03-17T06:13:22.980Z,98619.20
2019-03-17T06:15:54.327Z,98619.91
2019-03-17T06:18:25.643Z,98631.28
2019-03-17T06:20:57.011Z,98633.76
2019-03-17T06:23:28.265Z,98623.66
2019-03-17T06:25:59.666Z,98633.55
2019-03-17T06:28:31.041Z,98638.98
2019-03-17T06:31:02.326Z,98640.95
2019-03-17T06:33:33.727Z,98644.58
2019-03-17T06:36:05.006Z,98643.98
2019-03-17T06:38:36.945Z,98645.86
2019-03-17T06:41:08.647Z,98654.34
2019-03-17T06:43:40.107Z,98650.27
2019-03-17T06:46:14.889Z,98657.00
2019-03-17T06:48:54.932Z,98664.63
2019-03-17T06:51:33.551Z,98668.50
2019-03-17T06:54:04.788Z,98670.00
2019-03-17T06:56:36.916Z,98671.70
2019-03-17T06:59:08.154Z,98676.24
2019-03-17T07:01:39.552Z,98673.83
2019-03-17T07:04:10.907Z,98676.52
2019-03-17T07:06:42.658Z,98681.94
2019-03-17T07:09:15.303Z,98687.14
2019-03-17T07:11:46.561Z,98695.30
2019-03-17T07:14:19.672Z,98694.46
2019-03-17T07:16:51.056Z,98696.82
2019-03-17T07:19:23.352Z,98704.84
2019-03-17T07:21:54.591Z,98705.20
2019-03-17T07:24:25.984Z,98701.03
2019-03-17T07:26:57.238Z,98705.45
2019-03-17T07:29:30.172Z,98708.98
2019-03-17T07:32:03.277Z,98717.64
2019-03-17T07:34:37.187Z,98715.39
2019-03-17T07:37:08.536Z,98716.66
2019-03-17T07:39:39.958Z,98723.06
2019-03-17T07:42:14.422Z,98715.15
2019-03-17T07:44:53.366Z,98718.16
2019-03-17T07:47:24.713Z,98718.50
2019-03-17T07:49:57.058Z,98718.69
2019-03-17T07:52:28.392Z,98727.48
2019-03-17T07:54:59.725Z,98726.05
2019-03-17T07:57:30.969Z,98724.91
2019-03-17T08:00:02.201Z,98730.30
2019-03-17T08:02:33.592Z,98743.22
2019-03-17T08:05:07.215Z,98740.66
2019-03-17T08:07:38.861Z,98743.75
2019-03-17T08:10:14.372Z,98750.46
2019-03-17T08:12:45.714Z,98756.20
2019-03-17T08:15:17.133Z,98757.59
2019-03-17T08:17:48.552Z,98764.63
2019-03-17T08:20:19.830Z,98768.39
2019-03-17T08:22:51.256Z,98762.55
2019-03-17T08:25:22.585Z,98777.23
2019-03-17T08:27:53.874Z,98777.69
2019-03-17T08:30:25.228Z,98787.14
2019-03-17T08:32:56.536Z,98793.56
2019-03-17T08:35:27.912Z,98787.90
2019-03-17T08:37:59.182Z,98795.05
2019-03-17T08:40:30.431Z,98792.18
2019-03-17T08:43:01.751Z,98791.34
2019-03-17T08:45:33.083Z,98803.14
2019-03-17T08:48:04.721Z,98800.22
2019-03-17T08:50:36.061Z,98801.53
2019-03-17T08:53:07.324Z,98803.77
2019-03-17T08:55:38.547Z,98809.72
2019-03-17T08:58:09.927Z,98812.33
2019-03-17T09:00:41.292Z,98810.32
2019-03-17T09:03:12.639Z,98815.18
2019-03-17T09:05:44.051Z,98822.95
2019-03-17T09:08:15.627Z,98822.23
2019-03-17T09:10:46.907Z,98833.69
2019-03-17T09:13:18.066Z,98827.07
2019-03-17T09:15:49.314Z,98838.20
2019-03-17T09:18:20.630Z,98835.09
2019-03-17T09:20:51.944Z,98829.98
2019-03-17T09:23:23.106Z,98833.95
2019-03-17T09:25:54.465Z,98841.42
2019-03-17T09:28:25.878Z,98841.48
2019-03-17T09:30:57.327Z,98841.25
2019-03-17T09:33:28.580Z,98848.64
2019-03-17T09:36:00.419Z,98849.22
2019-03-17T09:38:32.127Z,98862.34
2019-03-17T09:41:03.494Z,98856.75
2019-03-17T09:43:34.937Z,98870.38
2019-03-17T09:46:06.292Z,98871.77
2019-03-17T09:48:37.710Z,98877.23
2019-03-17T09:51:08.986Z,98874.95
2019-03-17T09:53:40.245Z,98877.41
2019-03-17T09:56:11.566Z,98881.12
2019-03-17T09:58:45.547Z,98881.95
2019-03-17T10:01:15.841Z,98886.31
2019-03-17T10:03:47.208Z,98884.91
2019-03-17T10:06:18.550Z,98895.27
2019-03-17T10:08:59.377Z,98900.28
2019-03-17T10:11:23.312Z,98887.83
2019-03-17T10:13:54.632Z,98898.94
2019-03-17T10:16:25.858Z,98894.92
2019-03-17T10:18:57.000Z,98905.13
2019-03-17T10:21:28.319Z,98905.08
2019-03-17T10:23:59.633Z,98907.47
2019-03-17T10:26:30.962Z,98906.55
2019-03-17T10:29:02.139Z,98904.53
2019-03-17T10:31:33.413Z,98907.59
2019-03-17T10:34:04.625Z,98911.64
2019-03-17T10:36:36.952Z,98914.17
2019-03-17T10:39:12.755Z,98921.97
2019-03-17T10:41:41.157Z,98921.47
2019-03-17T10:44:12.397Z,98921.61
2019-03-17T10:46:43.673Z,98928.97
2019-03-17T10:49:15.077Z,98925.75
2019-03-17T10:51:46.422Z,98935.23
2019-03-17T10:54:17.814Z,98932.19
2019-03-17T10:56:49.435Z,98937.19
2019-03-17T10:59:20.825Z,98948.50
2019-03-17T11:01:52.138Z,98944.41
2019-03-17T11:04:23.447Z,98946.33
2019-03-17T11:06:55.715Z,98947.49
2019-03-17T11:09:26.984Z,98939.44
2019-03-17T11:11:58.365Z,98948.70
2019-03-17T11:14:29.677Z,98943.54
2019-03-17T11:17:01.071Z,98945.55
2019-03-17T11:19:32.409Z,98941.84
2019-03-17T11:22:03.740Z,98940.97
2019-03-17T11:24:35.084Z,98936.79
2019-03-17T11:27:06.393Z,98947.55
2019-03-17T11:29:37.675Z,98943.80
2019-03-17T11:32:08.936Z,98950.03
2019-03-17T11:34:40.867Z,98955.88
2019-03-17T11:37:12.527Z,98945.41
2019-03-17T11:39:43.895Z,98945.45
2019-03-17T11:42:15.128Z,98953.34
2019-03-17T11:44:46.410Z,98954.13
2019-03-17T11:47:17.765Z,98956.27
2019-03-17T11:49:49.059Z,98954.30
2019-03-17T11:52:20.338Z,98950.98
2019-03-17T11:54:51.716Z,98970.41
2019-03-17T11:57:23.125Z,98981.64
2019-03-17T11:59:55.349Z,98985.14
2019-03-17T12:02:27.076Z,98986.92
2019-03-17T12:04:58.796Z,98996.59
2019-03-17T12:07:30.182Z,99006.75
2019-03-17T12:10:02.543Z,99005.16
2019-03-17T12:12:33.874Z,99014.28
2019-03-17T12:15:08.535Z,99011.84
2019-03-17T12:17:40.278Z,99017.11
2019-03-17T12:20:14.126Z,99015.77
2019-03-17T12:22:45.478Z,99023.11
2019-03-17T12:25:17.975Z,99025.48
2019-03-17T12:27:49.262Z,99032.55
2019-03-17T12:30:24.515Z,99030.59
2019-03-17T12:32:56.001Z,99036.55
2019-03-17T12:35:27.268Z,99041.41
2019-03-17T12:37:58.646Z,99042.09
2019-03-17T12:40:30.117Z,99044.92
2019-03-17T12:43:01.455Z,99047.60
2019-03-17T12:45:32.779Z,99047.79
2019-03-17T12:48:04.103Z,99043.55
2019-03-17T12:50:35.375Z,99049.02
2019-03-17T12:53:07.993Z,99051.03
2019-03-17T12:55:39.719Z,99053.94
2019-03-17T12:58:11.069Z,99052.85
2019-03-17T13:00:42.356Z,99063.66
2019-03-17T13:03:13.967Z,99065.64
2019-03-17T13:05:45.307Z,99064.47
2019-03-17T13:08:16.713Z,99066.08
2019-03-17T13:10:48.061Z,99073.23
2019-03-17T13:13:19.400Z,99074.95
2019-03-17T13:15:50.684Z,99074.02
2019-03-17T13:18:22.080Z,99072.66
2019-03-17T13:20:53.508Z,99084.31
2019-03-17T13:23:24.756Z,99076.28
2019-03-17T13:25:56.133Z,99079.26
2019-03-17T13:28:28.366Z,99075.64
2019-03-17T13:30:59.692Z,99087.09
2019-03-17T13:33:31.084Z,99081.91
2019-03-17T13:36:02.541Z,99094.06
2019-03-17T13:38:34.065Z,99104.41
2019-03-17T13:41:05.320Z,99091.41
2019-03-17T13:43:36.813Z,99096.90
2019-03-17T13:46:08.215Z,99099.78
2019-03-17T13:48:39.575Z,99106.09
2019-03-17T13:51:11.042Z,99105.99
2019-03-17T13:53:42.368Z,99098.26
2019-03-17T13:56:13.777Z,99111.59
2019-03-17T13:58:45.100Z,99108.17
2019-03-17T14:01:16.467Z,99115.08
2019-03-17T14:03:47.743Z,99119.44
2019-03-17T14:06:19.582Z,99122.78
2019-03-17T14:08:52.162Z,99128.57
2019-03-17T14:11:23.492Z,99131.11
2019-03-17T14:13:55.298Z,99136.31
2019-03-17T14:16:26.602Z,99144.14
2019-03-17T14:18:57.942Z,99150.39
2019-03-17T14:21:29.240Z,99156.58
2019-03-17T14:24:00.529Z,99154.87
2019-03-17T14:26:31.921Z,99159.81
2019-03-17T14:29:03.331Z,99165.18
2019-03-17T14:31:35.105Z,99166.12
2019-03-17T14:34:06.435Z,99174.28
2019-03-17T14:36:37.754Z,99174.48
2019-03-17T14:39:09.004Z,99190.12
2019-03-17T14:41:40.406Z,99189.55
2019-03-17T14:44:11.764Z,99193.08
2019-03-17T14:46:43.086Z,99200.84
2019-03-17T14:49:15.534Z,99203.14
2019-03-17T14:51:46.763Z,99201.47
2019-03-17T14:54:18.105Z,99199.52
2019-03-17T14:56:49.472Z,99212.38
2019-03-17T14:59:20.872Z,99211.20
2019-03-17T15:01:52.194Z,99213.89
2019-03-17T15:04:23.593Z,99218.22
2019-03-17T15:06:54.985Z,99230.87
2019-03-17T15:09:26.419Z,99232.52
2019-03-17T15:11:57.756Z,99235.81
2019-03-17T15:14:29.156Z,99235.91
2019-03-17T15:17:00.414Z,99244.83
2019-03-17T15:19:31.663Z,99247.41
2019-03-17T15:22:03.099Z,99253.00
2019-03-17T15:24:34.462Z,99255.13
2019-03-17T15:27:05.770Z,99261.27
2019-03-17T15:29:36.981Z,99265.75
2019-03-17T15:32:08.303Z,99268.47
2019-03-17T15:34:39.645Z,99271.81
2019-03-17T15:37:12.505Z,99276.43
2019-03-17T15:39:43.857Z,99284.81
2019-03-17T15:42:15.221Z,99289.98
2019-03-17T15:44:46.568Z,99292.11
2019-03-17T15:47:17.940Z,99297.67
2019-03-17T15:49:50.440Z,99295.62
2019-03-17T15:52:21.852Z,99299.01
2019-03-17T15:54:53.198Z,99302.77
2019-03-17T15:57:24.472Z,99299.81
2019-03-17T15:59:55.822Z,99307.10
2019-03-17T16:02:27.126Z,99309.83
2019-03-17T16:04:58.520Z,99313.88
2019-03-17T16:07:41.440Z,99311.44
2019-03-17T16:10:03.779Z,99312.55
2019-03-17T16:12:35.178Z,99317.53
2019-03-17T16:15:12.171Z,99315.94
2019-03-17T16:17:43.487Z,99316.91
2019-03-17T16:20:25.658Z,99318.86
2019-03-17T16:22:56.286Z,99324.61
2019-03-17T16:25:29.040Z,99326.21
2019-03-17T16:28:00.176Z,99334.14
2019-03-17T16:30:32.801Z,99337.78
2019-03-17T16:33:04.204Z,99340.94
2019-03-17T16:35:35.631Z,99344.55
2019-03-17T16:38:07.945Z,99345.61
2019-03-17T16:40:40.322Z,99352.28
2019-03-17T16:43:11.620Z,99351.34
2019-03-17T16:45:43.018Z,99360.20
2019-03-17T16:48:14.542Z,99368.52
2019-03-17T16:50:45.951Z,99382.22
2019-03-17T16:53:17.225Z,99386.80
2019-03-17T16:55:48.591Z,99382.94
2019-03-17T16:58:19.841Z,99391.27
2019-03-17T17:00:51.191Z,99396.78
2019-03-17T17:03:22.406Z,99392.26
2019-03-17T17:05:54.235Z,99399.81
2019-03-17T17:08:25.568Z,99405.30
2019-03-17T17:10:56.980Z,99408.46
2019-03-17T17:13:28.324Z,99412.12
2019-03-17T17:15:59.634Z,99414.81
2019-03-17T17:18:30.985Z,99414.97
2019-03-17T17:21:02.405Z,99421.97
2019-03-17T17:23:33.963Z,99418.16
2019-03-17T17:26:05.309Z,99422.48
2019-03-17T17:28:36.645Z,99423.17
2019-03-17T17:31:07.965Z,99430.48
2019-03-17T17:33:39.245Z,99431.83
2019-03-17T17:36:10.409Z,99434.16
2019-03-17T17:38:41.717Z,99433.16
2019-03-17T17:41:12.970Z,99433.81
2019-03-17T17:43:44.288Z,99438.17
2019-03-17T17:46:15.595Z,99445.16
2019-03-17T17:48:46.970Z,99447.83
2019-03-17T17:51:18.309Z,99448.17
2019-03-17T17:53:49.692Z,99445.34
2019-03-17T17:56:21.052Z,99446.82
2019-03-17T17:58:52.394Z,99442.99
2019-03-17T18:01:23.711Z,99444.16
2019-03-17T18:03:56.174Z,99440.45
2019-03-17T18:06:29.070Z,99440.16
2019-03-17T18:09:00.976Z,99441.09
2019-03-17T18:11:32.424Z,99444.77
2019-03-17T18:14:03.795Z,99443.09
2019-03-17T18:16:35.024Z,99446.74
2019-03-17T18:19:06.372Z,99451.72
2019-03-17T18:21:37.696Z,99460.02
2019-03-17T18:24:09.037Z,99463.38
2019-03-17T18:26:40.396Z,99465.52
2019-03-17T18:29:11.836Z,99462.80
2019-03-17T18:31:43.722Z,99467.58
2019-03-17T18:34:14.927Z,99465.62
2019-03-17T18:36:46.339Z,99480.11
2019-03-17T18:39:17.660Z,99476.89
2019-03-17T18:41:49.115Z,99480.27
2019-03-17T18:44:20.466Z,99481.83
2019-03-17T18:46:51.842Z,99484.89
2019-03-17T18:49:23.120Z,99488.72
2019-03-17T18:51:54.511Z,99481.90
2019-03-17T18:54:25.821Z,99488.97
2019-03-17T18:56:57.221Z,99495.92
2019-03-17T18:59:28.823Z,99493.55
2019-03-17T19:02:01.161Z,99491.22
2019-03-17T19:04:33.622Z,99491.41
2019-03-17T19:07:04.996Z,99497.61
2019-03-17T19:09:37.392Z,99498.97
2019-03-17T19:12:08.778Z,99501.22
2019-03-17T19:14:40.208Z,99493.72
2019-03-17T19:17:12.706Z,99497.84
2019-03-17T19:19:44.292Z,99499.39
2019-03-17T19:22:15.632Z,99504.39
2019-03-17T19:24:48.558Z,99510.18
2019-03-17T19:27:19.899Z,99499.37
2019-03-17T19:29:51.322Z,99505.83
2019-03-17T19:32:22.735Z,99505.36
2019-03-17T19:34:54.069Z,99510.69
2019-03-17T19:37:25.737Z,99504.06
2019-03-17T19:39:57.141Z,99499.39
2019-03-17T19:42:28.384Z,99502.05
2019-03-17T19:44:59.848Z,99506.05
2019-03-17T19:47:31.195Z,99501.08
2019-03-17T19:50:02.589Z,99496.73
2019-03-17T19:52:35.305Z,99497.58
2019-03-17T19:55:08.292Z,99501.28
2019-03-17T19:57:39.654Z,99505.12
2019-03-17T20:00:19.213Z,99500.16
2019-03-17T20:02:50.608Z,99502.64
2019-03-17T20:05:22.031Z,99506.47
2019-03-17T20:07:54.354Z,99508.55
2019-03-17T20:10:32.333Z,99513.93
2019-03-17T20:13:11.716Z,99511.47
2019-03-17T20:15:36.868Z,99515.45
2019-03-17T20:18:08.169Z,99520.51
2019-03-17T20:20:39.578Z,99521.81
2019-03-17T20:23:11.054Z,99523.89
2019-03-17T20:25:42.457Z,99526.39
2019-03-17T20:28:13.818Z,99529.52
2019-03-17T20:30:45.148Z,99528.14
2019-03-17T20:33:16.505Z,99525.78
2019-03-17T20:35:48.035Z,99522.98
2019-03-17T20:38:19.331Z,99522.98
2019-03-17T20:40:50.539Z,99523.30
2019-03-17T20:43:34.237Z,99517.81
2019-03-17T20:45:54.832Z,99524.78
2019-03-17T20:48:26.152Z,99530.70
2019-03-17T20:50:59.683Z,99530.45
2019-03-17T20:53:30.611Z,99535.86
2019-03-17T20:56:01.996Z,99534.56
2019-03-17T20:58:33.437Z,99533.66
2019-03-17T21:01:04.824Z,99534.47
2019-03-17T21:03:36.164Z,99543.31
2019-03-17T21:06:07.455Z,99542.47
2019-03-17T21:08:38.745Z,99545.02
2019-03-17T21:11:10.121Z,99546.94
2019-03-17T21:13:46.753Z,99549.33
2019-03-17T21:16:14.528Z,99550.55
2019-03-17T21:18:45.889Z,99550.92
2019-03-17T21:21:17.212Z,99547.02
2019-03-17T21:23:48.577Z,99559.44
2019-03-17T21:26:20.011Z,99559.98
2019-03-17T21:28:51.473Z,99559.47
2019-03-17T21:31:22.909Z,99562.05
2019-03-17T21:33:54.681Z,99569.02
2019-03-17T21:36:25.970Z,99564.89
2019-03-17T21:38:57.266Z,99568.57
2019-03-17T21:41:28.635Z,99571.34
2019-03-17T21:44:00.111Z,99565.17
2019-03-17T21:46:31.534Z,99575.42
2019-03-17T21:49:02.987Z,99576.67
2019-03-17T21:51:34.452Z,99578.19
2019-03-17T21:54:05.776Z,99582.53
2019-03-17T21:56:37.205Z,99585.39
2019-03-17T21:59:08.537Z,99587.27
2019-03-17T22:01:39.879Z,99585.82
2019-03-17T22:04:11.148Z,99593.28
2019-03-17T22:06:42.535Z,99591.17
2019-03-17T22:09:17.050Z,99590.43
2019-03-17T22:11:46.970Z,99598.30
2019-03-17T22:14:18.131Z,99599.70
2019-03-17T22:16:49.453Z,99600.52
2019-03-17T22:19:20.863Z,99598.70
2019-03-17T22:21:52.118Z,99605.56
2019-03-17T22:24:23.534Z,99606.69
2019-03-17T22:26:54.863Z,99606.11
2019-03-17T22:29:26.283Z,99615.80
2019-03-17T22:31:57.667Z,99617.84
2019-03-17T22:34:28.996Z,99623.33
2019-03-17T22:37:00.422Z,99624.39
2019-03-17T22:39:31.756Z,99623.12
2019-03-17T22:42:03.229Z,99635.77
2019-03-17T22:44:35.289Z,99635.64
2019-03-17T22:47:06.006Z,99631.98
2019-03-17T22:49:37.036Z,99630.13
2019-03-17T22:52:08.437Z,99637.91
2019-03-17T22:54:39.720Z,99642.36
2019-03-17T22:57:10.798Z,99641.41
2019-03-17T22:59:42.146Z,99636.96
2019-03-17T23:02:13.562Z,99643.48
2019-03-17T23:04:44.815Z,99640.22
2019-03-17T23:07:16.203Z,99651.79
2019-03-17T23:09:47.678Z,99662.39
2019-03-17T23:12:19.026Z,99662.22
2019-03-17T23:14:50.409Z,99669.97
2019-03-17T23:17:21.778Z,99664.09
2019-03-17T23:19:53.154Z,99667.06
2019-03-17T23:22:24.541Z,99650.37
2019-03-17T23:24:55.935Z,99657.84
2019-03-17T23:27:27.258Z,99659.59
2019-03-17T23:29:58.507Z,99659.25
2019-03-17T23:32:29.862Z,99654.28
2019-03-17T23:35:01.194Z,99665.85
2019-03-17T23:37:32.637Z,99665.85
2019-03-17T23:40:05.191Z,99659.06
2019-03-17T23:42:36.607Z,99660.73
2019-03-17T23:45:11.737Z,99662.66
2019-03-17T23:47:42.860Z,99673.08
2019-03-17T23:50:16.907Z,99673.93
2019-03-17T23:52:48.371Z,99680.25
2019-03-17T23:55:19.621Z,99680.92
2019-03-17T23:57:50.969Z,99682.69
